WetterOnline ( https://www.wetteronline.de )

Wetter aktuell Geiselhöring

Aktuelles Wetter: Straubing (360m)

6-stündlich | Neueste Meldungen
Ortszeit Temperatur Wetter
Mi, 12.05. 8:00 11.0° C leichter Regen
Mi, 12.05. 2:00 12.8° C Sprühregen
Di, 11.05. 20:00 17.5° C bewölkt
Di, 11.05. 14:00 23.7° C bedeckt
Di, 11.05. 8:00 16.0° C wolkig
Di, 11.05. 2:00 18.6° C wolkig
Mo, 10.05. 20:00 22.4° C wolkig
Mo, 10.05. 14:00 25.9° C fast wolkenlos
Ortszeit Temperatur Wetter
Mi, 12.05. 10:30 12.2° C leichter Regen
Mi, 12.05. 10:20 12.2° C leichter Regen
Mi, 12.05. 10:10 12.1° C Sprühregen
Mi, 12.05. 10:00 11.9° C leichter Regen
Mi, 12.05. 9:50 11.9° C leichter Regen
Mi, 12.05. 9:40 11.7° C leichter Regen
Mi, 12.05. 9:30 11.6° C leichter Regen
Mi, 12.05. 9:00 11.4° C leichter Regen
Mi, 12.05. 7:00 11.0° C leichter Regen
Ortszeit Relative Feuchte Sichtweite
Mi, 12.05. 8:00 96% 11 km
Mi, 12.05. 2:00 84% 55 km
Di, 11.05. 20:00 71% 55 km
Di, 11.05. 14:00 50% 22 km
Di, 11.05. 8:00 72% 65 km
Di, 11.05. 2:00 56% >70 km
Mo, 10.05. 20:00 47% 55 km
Mo, 10.05. 14:00 40% 40 km
Ortszeit Relative Feuchte Sichtweite
Mi, 12.05. 10:30 92% 13 km
Mi, 12.05. 10:20 92% -
Mi, 12.05. 10:10 93% -
Mi, 12.05. 10:00 93% 15 km
Mi, 12.05. 9:50 93% -
Mi, 12.05. 9:40 94% -
Mi, 12.05. 9:30 95% 13 km
Mi, 12.05. 9:00 95% 14 km
Mi, 12.05. 7:00 96% 13 km
Ortszeit Niederschlagsmenge Niederschlagsart
Mi, 12.05. 8:00 12 l/m2 in 12 Std. Regen
Mi, 12.05. 2:00 0.4 l/m2 in 6 Std. Regen
Di, 11.05. 20:00 0.1 l/m2 in 12 Std. Regen
Di, 11.05. 14:00 0.0 l/m2 in 6 Std. -
Di, 11.05. 8:00 0.0 l/m2 in 12 Std. -
Di, 11.05. 2:00 0.0 l/m2 in 6 Std. -
Mo, 10.05. 20:00 0.0 l/m2 in 12 Std. -
Mo, 10.05. 14:00 0.0 l/m2 in 6 Std. -
Ortszeit Niederschlagsmenge Niederschlagsart
Mi, 12.05. 10:30 0.2 l/m2 in 1 Std. -
Mi, 12.05. 10:20 keine Meldung -
Mi, 12.05. 10:10 keine Meldung -
Mi, 12.05. 10:00 1.2 l/m2 in 1 Std. Regen
Mi, 12.05. 9:50 keine Meldung -
Mi, 12.05. 9:40 keine Meldung -
Mi, 12.05. 9:30 0.7 l/m2 in 1 Std. -
Mi, 12.05. 9:00 1.4 l/m2 in 1 Std. Regen
Mi, 12.05. 7:00 keine Meldung -
Ortszeit Stärke Spitze Richtung
km/h Bft. km/h Grad Sektor
Mi, 12.05. 8:00 11 2 29 250° W
Mi, 12.05. 2:00 13 3 31 280° W
Di, 11.05. 20:00 18 3 40 270° W
Di, 11.05. 14:00 7 2 22 60° NO
Di, 11.05. 8:00 7 2 26 260° W
Di, 11.05. 2:00 17 3 24 120° SO
Mo, 10.05. 20:00 17 3 28 150° SO
Mo, 10.05. 14:00 11 2 29 110° O
Ortszeit Stärke Spitze Richtung
km/h Bft. km/h Grad Sektor
Mi, 12.05. 10:30 15 3 26 260° W
Mi, 12.05. 10:20 15 3 - 260° W
Mi, 12.05. 10:10 13 3 - 260° W
Mi, 12.05. 10:00 15 3 24 260° W
Mi, 12.05. 9:50 15 3 - 260° W
Mi, 12.05. 9:40 13 3 - 270° W
Mi, 12.05. 9:30 11 2 22 260° W
Mi, 12.05. 9:00 11 2 22 250° W
Mi, 12.05. 7:00 14 3 22 250° W
Ortszeit Untergrenze Bedeckung Gattung
total tief tief mittel hoch
Mi, 12.05. 8:00 210 m 7/8 7/8 - - -
Mi, 12.05. 2:00 510 m 8/8 8/8 - - -
Di, 11.05. 20:00 2700 m 8/8 7/8 - - -
Di, 11.05. 14:00 3300 m 8/8 8/8 - - -
Di, 11.05. 8:00 6900 m 8/8 1/8 - - -
Di, 11.05. 2:00 8400 m 8/8 0/8 - - -
Mo, 10.05. 20:00 7800 m 7/8 0/8 - - -
Mo, 10.05. 14:00 9000 m 2/8 0/8 - - -
Ortszeit Bedeckungsgrad in Achtel und Wolkenuntergrenze
Mi, 12.05. 10:30 4(240m) 7(390m) 8(1500m)
Mi, 12.05. 10:20 4(240m) 7(390m) 8(1500m)
Mi, 12.05. 10:10 6(270m) 7(390m) 8(1500m)
Mi, 12.05. 10:00 5(210m) 8(390m) 7(480m)
Mi, 12.05. 9:50 5(210m) 8(390m)
Mi, 12.05. 9:40 5(210m) 7(360m) 8(540m)
Mi, 12.05. 9:30 5(210m) 7(450m) 8(690m)
Mi, 12.05. 9:00 3(210m) 7(840m) 8(1050m)
Mi, 12.05. 7:00 5(180m) 7(510m) 8(750m)
Ortszeit Luftdruck NN (hPa) Tendenz (hPa in 3 Std.)
Mi, 12.05. 8:00 1010 + 0,8
Mi, 12.05. 2:00 1009 + 0,8
Di, 11.05. 20:00 1005 + 2,7
Di, 11.05. 14:00 1002 - 1,4
Di, 11.05. 8:00 1006 + 0,6
Di, 11.05. 2:00 1006 - 1,0
Mo, 10.05. 20:00 1007 - 0,2
Mo, 10.05. 14:00 1008 - 0,4
Ortszeit Luftdruck NN (hPa) Tendenz (hPa in 3 Std.)
Mi, 12.05. 10:30 1009 - 0,6
Mi, 12.05. 10:20 1009 keine Meldung
Mi, 12.05. 10:10 1010 keine Meldung
Mi, 12.05. 10:00 1010 - 0,3
Mi, 12.05. 9:50 1010 keine Meldung
Mi, 12.05. 9:40 1010 keine Meldung
Mi, 12.05. 9:30 1010 + 0,2
Mi, 12.05. 9:00 1010 + 0,2
Mi, 12.05. 7:00 1010 + 0,5
Ortszeit Schneehöhe (cm)
Mi, 12.05. 8:00 0
Mi, 12.05. 2:00 0
Di, 11.05. 20:00 0
Di, 11.05. 14:00 0
Di, 11.05. 8:00 0
Di, 11.05. 2:00 0
Mo, 10.05. 20:00 0
Mo, 10.05. 14:00 0
Ortszeit Schneehöhe (cm)
Mi, 12.05. 10:30 0
Mi, 12.05. 10:20 0
Mi, 12.05. 10:10 0
Mi, 12.05. 10:00 0
Mi, 12.05. 9:50 0
Mi, 12.05. 9:40 0
Mi, 12.05. 9:30 0
Mi, 12.05. 9:00 0
Mi, 12.05. 7:00 -
Link zu dieser Seite / Seite empfehlen

Das Wetter in ...